createdAt,value
2023-05-17T00:00:45.103Z,101.08
2023-05-17T00:01:45.080Z,100.84
2023-05-17T00:02:45.205Z,101.05
2023-05-17T00:03:45.066Z,101.54
2023-05-17T00:04:45.175Z,100.49
2023-05-17T00:05:45.126Z,103.23
2023-05-17T00:06:45.043Z,103.56
2023-05-17T00:07:45.037Z,103.73
2023-05-17T00:08:45.026Z,105.57
2023-05-17T00:09:45.082Z,106.97
2023-05-17T00:10:45.121Z,107.29
2023-05-17T00:11:45.191Z,108.33
2023-05-17T00:12:45.245Z,108.53
2023-05-17T00:13:45.307Z,108.71
2023-05-17T00:14:45.378Z,108.80
2023-05-17T00:15:45.439Z,108.25
2023-05-17T00:16:45.500Z,110.40
2023-05-17T00:17:45.621Z,112.07
2023-05-17T00:18:46.176Z,110.26
2023-05-17T00:19:45.707Z,110.97
2023-05-17T00:20:45.695Z,110.18
2023-05-17T00:21:45.753Z,110.91
2023-05-17T00:22:45.829Z,111.49
2023-05-17T00:23:45.860Z,111.42
2023-05-17T00:24:45.903Z,111.07
2023-05-17T00:25:45.976Z,111.37
2023-05-17T00:26:45.918Z,112.23
2023-05-17T00:27:45.954Z,111.76
2023-05-17T00:28:45.978Z,111.95
2023-05-17T00:29:45.988Z,111.02
2023-05-17T00:30:46.019Z,110.59
2023-05-17T00:31:46.071Z,110.75
2023-05-17T00:32:46.093Z,110.97
2023-05-17T00:33:46.094Z,110.92
2023-05-17T00:34:46.202Z,108.17
2023-05-17T00:35:46.166Z,105.79
2023-05-17T00:36:46.156Z,108.00
2023-05-17T00:37:46.181Z,108.01
2023-05-17T00:38:46.223Z,107.86
2023-05-17T00:39:46.258Z,106.98
2023-05-17T00:40:46.321Z,106.67
2023-05-17T00:41:46.359Z,106.16
2023-05-17T00:42:46.440Z,107.54
2023-05-17T00:43:46.462Z,106.51
2023-05-17T00:44:46.505Z,108.09
2023-05-17T00:45:46.536Z,107.37
2023-05-17T00:46:46.577Z,107.56
2023-05-17T00:47:46.680Z,106.81
2023-05-17T00:48:46.668Z,105.26
2023-05-17T00:49:46.624Z,105.86
2023-05-17T00:50:47.046Z,107.76
2023-05-17T00:51:46.694Z,106.14
2023-05-17T00:52:46.731Z,103.32
2023-05-17T00:53:46.720Z,103.34
2023-05-17T00:54:46.764Z,101.88
2023-05-17T00:55:46.766Z,99.88
2023-05-17T00:56:46.813Z,100.23
2023-05-17T00:57:46.822Z,96.26
2023-05-17T00:58:46.840Z,94.94
2023-05-17T00:59:46.868Z,93.95
2023-05-17T01:00:46.906Z,92.37
2023-05-17T01:01:46.914Z,90.24
2023-05-17T01:02:47.013Z,91.52
2023-05-17T01:03:47.044Z,92.71
2023-05-17T01:04:47.045Z,93.63
2023-05-17T01:05:47.013Z,94.02
2023-05-17T01:06:47.174Z,94.31
2023-05-17T01:07:47.059Z,93.15
2023-05-17T01:08:47.093Z,91.46
2023-05-17T01:09:47.130Z,91.93
2023-05-17T01:10:47.152Z,93.41
2023-05-17T01:11:47.162Z,92.43
2023-05-17T01:12:47.189Z,88.20
2023-05-17T01:13:47.213Z,88.71
2023-05-17T01:14:47.241Z,86.06
2023-05-17T01:15:47.345Z,84.83
2023-05-17T01:16:47.314Z,86.12
2023-05-17T01:17:47.410Z,86.38
2023-05-17T01:18:47.462Z,82.48
2023-05-17T01:19:47.408Z,81.93
2023-05-17T01:20:47.378Z,78.31
2023-05-17T01:21:47.418Z,75.58
2023-05-17T01:22:47.618Z,77.07
2023-05-17T01:23:47.480Z,78.22
2023-05-17T01:24:47.486Z,76.95
2023-05-17T01:25:47.502Z,76.64
2023-05-17T01:26:47.538Z,78.56
2023-05-17T01:27:47.551Z,82.21
2023-05-17T01:28:47.611Z,81.65
2023-05-17T01:29:47.611Z,78.37
2023-05-17T01:30:47.628Z,79.84
2023-05-17T01:31:47.659Z,79.43
2023-05-17T01:32:47.826Z,77.22
2023-05-17T01:33:47.957Z,77.21
2023-05-17T01:34:47.702Z,77.35
2023-05-17T01:35:47.741Z,74.53
2023-05-17T01:36:47.753Z,74.30
2023-05-17T01:37:47.787Z,73.10
2023-05-17T01:38:47.872Z,72.48
2023-05-17T01:39:47.818Z,71.48
2023-05-17T01:40:47.855Z,72.09
2023-05-17T01:41:47.868Z,71.62
2023-05-17T01:42:47.899Z,72.85
2023-05-17T01:43:47.940Z,72.50
2023-05-17T01:44:47.962Z,74.05
2023-05-17T01:45:47.995Z,74.27
2023-05-17T01:46:48.048Z,75.38
2023-05-17T01:47:48.090Z,77.36
2023-05-17T01:48:49.910Z,76.74
2023-05-17T01:49:48.100Z,77.54
2023-05-17T01:50:48.120Z,76.70
2023-05-17T01:51:48.190Z,75.88
2023-05-17T01:52:48.171Z,75.39
2023-05-17T01:53:48.224Z,72.41
2023-05-17T01:54:48.319Z,71.52
2023-05-17T01:55:48.264Z,74.45
2023-05-17T01:56:48.301Z,76.14
2023-05-17T01:57:48.326Z,73.42
2023-05-17T01:58:48.339Z,72.52
2023-05-17T01:59:48.364Z,72.62
2023-05-17T02:00:48.403Z,73.77
2023-05-17T02:01:48.422Z,72.41
2023-05-17T02:02:48.478Z,72.28
2023-05-17T02:03:48.541Z,73.11
2023-05-17T02:04:48.584Z,75.76
2023-05-17T02:05:48.548Z,79.91
2023-05-17T02:06:48.602Z,80.16
2023-05-17T02:07:48.615Z,79.50
2023-05-17T02:08:48.626Z,81.59
2023-05-17T02:09:48.653Z,81.30
2023-05-17T02:10:48.660Z,81.43
2023-05-17T02:11:48.680Z,82.07
2023-05-17T02:12:48.716Z,81.70
2023-05-17T02:13:48.760Z,79.39
2023-05-17T02:14:48.777Z,79.78
2023-05-17T02:15:48.820Z,79.41
2023-05-17T02:16:48.830Z,79.44
2023-05-17T02:17:48.994Z,82.09
2023-05-17T02:18:48.946Z,81.95
2023-05-17T02:19:48.892Z,79.20
2023-05-17T02:20:48.925Z,81.57
2023-05-17T02:21:48.948Z,81.88
2023-05-17T02:22:48.995Z,82.76
2023-05-17T02:23:49.009Z,84.42
2023-05-17T02:24:49.112Z,83.69
2023-05-17T02:25:49.028Z,82.41
2023-05-17T02:26:49.124Z,81.01
2023-05-17T02:27:49.096Z,80.91
2023-05-17T02:28:49.107Z,77.81
2023-05-17T02:29:49.142Z,79.26
2023-05-17T02:30:49.168Z,80.68
2023-05-17T02:31:49.196Z,83.05
2023-05-17T02:32:49.279Z,83.92
2023-05-17T02:33:49.299Z,84.22
2023-05-17T02:34:49.281Z,85.29
2023-05-17T02:35:49.300Z,86.55
2023-05-17T02:36:49.325Z,85.47
2023-05-17T02:37:49.359Z,85.40
2023-05-17T02:38:49.392Z,82.90
2023-05-17T02:39:49.431Z,84.03
2023-05-17T02:40:49.440Z,81.18
2023-05-17T02:41:49.469Z,81.68
2023-05-17T02:42:49.561Z,83.70
2023-05-17T02:43:49.538Z,83.67
2023-05-17T02:44:49.557Z,84.47
2023-05-17T02:45:49.586Z,82.52
2023-05-17T02:46:49.663Z,82.26
2023-05-17T02:47:49.704Z,80.10
2023-05-17T02:48:49.672Z,79.73
2023-05-17T02:49:49.706Z,78.73
2023-05-17T02:50:49.728Z,78.34
2023-05-17T02:51:49.757Z,79.62
2023-05-17T02:52:49.774Z,77.78
2023-05-17T02:53:49.821Z,80.47
2023-05-17T02:54:49.834Z,77.35
2023-05-17T02:55:49.862Z,74.02
2023-05-17T02:56:49.889Z,74.09
2023-05-17T02:57:49.915Z,72.24
2023-05-17T02:58:50.005Z,71.65
2023-05-17T02:59:49.985Z,72.05
2023-05-17T03:00:50.022Z,70.11
2023-05-17T03:01:50.029Z,71.00
2023-05-17T03:02:50.153Z,69.50
2023-05-17T03:03:50.290Z,70.54
2023-05-17T03:04:50.199Z,71.68
2023-05-17T03:05:50.155Z,71.93
2023-05-17T03:06:50.192Z,70.60
2023-05-17T03:07:50.204Z,70.06
2023-05-17T03:08:50.288Z,68.11
2023-05-17T03:09:50.264Z,67.09
2023-05-17T03:10:50.305Z,67.61
2023-05-17T03:11:50.355Z,68.34
2023-05-17T03:12:50.408Z,69.61
2023-05-17T03:13:50.429Z,67.05
2023-05-17T03:14:50.657Z,67.35
2023-05-17T03:15:50.506Z,66.67
2023-05-17T03:16:50.531Z,68.69
2023-05-17T03:17:50.658Z,66.87
2023-05-17T03:18:50.743Z,67.70
2023-05-17T03:19:50.731Z,66.46
2023-05-17T03:20:50.669Z,64.43
2023-05-17T03:21:50.711Z,67.00
2023-05-17T03:22:50.722Z,67.12
2023-05-17T03:23:50.759Z,66.95
2023-05-17T03:24:50.793Z,68.82
2023-05-17T03:25:50.817Z,68.19
2023-05-17T03:26:50.881Z,68.39
2023-05-17T03:27:50.959Z,64.95
2023-05-17T03:28:50.943Z,67.25
2023-05-17T03:29:50.966Z,66.84
2023-05-17T03:30:51.021Z,66.48
2023-05-17T03:31:51.025Z,65.84
2023-05-17T03:32:51.159Z,65.65
2023-05-17T03:33:51.166Z,66.95
2023-05-17T03:34:51.141Z,67.34
2023-05-17T03:35:51.149Z,67.01
2023-05-17T03:36:51.200Z,65.13
2023-05-17T03:37:51.214Z,67.88
2023-05-17T03:38:51.262Z,65.49
2023-05-17T03:39:51.300Z,64.38
2023-05-17T03:40:51.318Z,65.17
2023-05-17T03:41:51.364Z,62.93
2023-05-17T03:42:51.412Z,63.47
2023-05-17T03:43:51.445Z,65.31
2023-05-17T03:44:51.476Z,65.62
2023-05-17T03:45:51.504Z,65.35
2023-05-17T03:46:51.623Z,68.42
2023-05-17T03:47:51.620Z,62.92
2023-05-17T03:48:51.676Z,63.27
2023-05-17T03:49:51.685Z,62.27
2023-05-17T03:50:51.706Z,61.61
2023-05-17T03:51:51.764Z,61.70
2023-05-17T03:52:51.787Z,63.34
2023-05-17T03:53:51.845Z,62.23
2023-05-17T03:54:51.871Z,62.83
2023-05-17T03:55:51.911Z,64.16
2023-05-17T03:56:51.956Z,63.88
2023-05-17T03:57:52.013Z,62.03
2023-05-17T03:58:52.113Z,63.02
2023-05-17T03:59:52.076Z,61.32
2023-05-17T04:00:52.105Z,59.93
2023-05-17T04:01:52.162Z,60.24
2023-05-17T04:02:52.348Z,58.54
2023-05-17T04:03:52.275Z,60.39
2023-05-17T04:04:52.351Z,60.00
2023-05-17T04:05:52.304Z,60.60
2023-05-17T04:06:52.361Z,62.96
2023-05-17T04:07:52.399Z,61.70
2023-05-17T04:08:52.420Z,62.29
2023-05-17T04:09:52.460Z,67.81
2023-05-17T04:10:52.494Z,67.70
2023-05-17T04:11:52.557Z,69.04
2023-05-17T04:12:52.578Z,69.78
2023-05-17T04:13:52.612Z,69.87
2023-05-17T04:14:52.592Z,72.15
2023-05-17T04:15:52.624Z,71.91
2023-05-17T04:16:52.661Z,69.35
2023-05-17T04:17:52.810Z,66.64
2023-05-17T04:18:52.993Z,68.02
2023-05-17T04:19:52.869Z,67.54
2023-05-17T04:20:52.771Z,64.89
2023-05-17T04:21:52.846Z,65.96
2023-05-17T04:22:52.861Z,68.87
2023-05-17T04:23:52.884Z,68.73
2023-05-17T04:24:52.914Z,70.37
2023-05-17T04:25:52.952Z,68.18
2023-05-17T04:26:52.994Z,69.74
2023-05-17T04:27:53.045Z,66.95
2023-05-17T04:28:53.091Z,67.50
2023-05-17T04:29:53.101Z,63.65
2023-05-17T04:30:53.146Z,63.66
2023-05-17T04:31:53.184Z,62.04
2023-05-17T04:32:53.250Z,61.75
2023-05-17T04:33:53.356Z,61.46
2023-05-17T04:34:53.377Z,62.74
2023-05-17T04:35:53.353Z,62.24
2023-05-17T04:36:53.380Z,61.57
2023-05-17T04:37:53.406Z,63.24
2023-05-17T04:38:53.455Z,64.43
2023-05-17T04:39:53.492Z,65.20
2023-05-17T04:40:53.534Z,62.76
2023-05-17T04:41:53.589Z,63.89
2023-05-17T04:42:53.611Z,60.71
2023-05-17T04:43:53.645Z,62.20
2023-05-17T04:44:53.654Z,61.12
2023-05-17T04:45:53.688Z,60.74
2023-05-17T04:46:53.763Z,57.06
2023-05-17T04:47:53.877Z,59.39
2023-05-17T04:48:53.905Z,59.43
2023-05-17T04:49:53.863Z,55.13
2023-05-17T04:50:53.955Z,55.31
2023-05-17T04:51:53.898Z,54.58
2023-05-17T04:52:53.941Z,54.12
2023-05-17T04:53:53.955Z,51.72
2023-05-17T04:54:54.034Z,53.57
2023-05-17T04:55:54.018Z,52.67
2023-05-17T04:56:54.060Z,50.22
2023-05-17T04:57:54.093Z,54.99
2023-05-17T04:58:54.142Z,57.32
2023-05-17T04:59:54.161Z,52.67
2023-05-17T05:00:54.198Z,51.18
2023-05-17T05:01:54.238Z,49.41
2023-05-17T05:02:54.345Z,50.66
2023-05-17T05:03:54.325Z,49.66
2023-05-17T05:04:54.356Z,46.02
2023-05-17T05:05:54.390Z,48.91
2023-05-17T05:06:54.529Z,51.68
2023-05-17T05:07:54.437Z,49.04
2023-05-17T05:08:54.477Z,50.70
2023-05-17T05:09:54.507Z,55.75
2023-05-17T05:10:54.542Z,55.52
2023-05-17T05:11:54.575Z,56.91
2023-05-17T05:12:54.602Z,56.76
2023-05-17T05:13:54.648Z,57.99
2023-05-17T05:14:54.664Z,51.02
2023-05-17T05:15:54.713Z,52.17
2023-05-17T05:16:54.730Z,50.86
2023-05-17T05:17:54.866Z,47.73
2023-05-17T05:18:55.016Z,47.67
2023-05-17T05:19:54.980Z,45.38
2023-05-17T05:20:54.946Z,45.58
2023-05-17T05:21:54.900Z,46.16
2023-05-17T05:22:55.073Z,30.68
2023-05-17T05:23:55.002Z,19.85
2023-05-17T05:24:54.993Z,20.38
2023-05-17T05:25:54.996Z,18.45
2023-05-17T05:26:55.045Z,26.15
2023-05-17T05:27:55.071Z,40.28
2023-05-17T05:28:55.100Z,58.79
2023-05-17T05:29:55.150Z,71.86
2023-05-17T05:30:55.121Z,85.40
2023-05-17T05:31:55.130Z,107.63
2023-05-17T05:32:55.267Z,108.89
2023-05-17T05:33:55.260Z,108.81
2023-05-17T05:34:55.266Z,120.53
2023-05-17T05:35:55.295Z,121.49
2023-05-17T05:36:55.316Z,126.37
2023-05-17T05:37:55.342Z,143.48
2023-05-17T05:38:55.486Z,152.25
2023-05-17T05:39:55.372Z,157.40
2023-05-17T05:40:55.394Z,163.96
2023-05-17T05:41:55.402Z,177.17
2023-05-17T05:42:55.473Z,185.41
2023-05-17T05:43:55.467Z,197.87
2023-05-17T05:44:55.466Z,212.64
2023-05-17T05:45:55.615Z,218.79
2023-05-17T05:46:55.477Z,227.61
2023-05-17T05:47:55.530Z,232.28
2023-05-17T05:48:55.543Z,242.86
2023-05-17T05:49:55.484Z,248.97
2023-05-17T05:50:55.503Z,250.25
2023-05-17T05:51:55.548Z,250.00
2023-05-17T05:53:06.631Z,250.27
2023-05-17T05:53:56.599Z,250.47
2023-05-17T05:54:55.655Z,251.55
2023-05-17T05:55:55.593Z,254.35
2023-05-17T05:56:55.575Z,258.77
2023-05-17T05:57:55.584Z,266.43
2023-05-17T05:58:55.561Z,260.04
2023-05-17T05:59:55.665Z,253.44
2023-05-17T06:00:55.548Z,250.00
2023-05-17T06:01:55.557Z,249.89
2023-05-17T06:02:55.824Z,249.55
2023-05-17T06:03:55.652Z,249.98
2023-05-17T06:04:55.688Z,249.60
2023-05-17T06:05:55.761Z,249.90
2023-05-17T06:06:55.811Z,249.75
2023-05-17T06:07:55.770Z,249.63
2023-05-17T06:08:57.070Z,247.22
2023-05-17T06:09:55.893Z,244.90
2023-05-17T06:10:55.879Z,248.21
2023-05-17T06:11:55.775Z,248.93
2023-05-17T06:12:55.787Z,246.34
2023-05-17T06:13:55.768Z,244.09
2023-05-17T06:14:55.769Z,250.00
2023-05-17T06:15:55.755Z,249.93
2023-05-17T06:16:55.761Z,249.54
2023-05-17T06:17:55.873Z,249.24
2023-05-17T06:18:55.828Z,248.50
2023-05-17T06:19:55.794Z,247.24
2023-05-17T06:20:55.726Z,246.95
2023-05-17T06:21:55.717Z,246.41
2023-05-17T06:22:55.746Z,247.52
2023-05-17T06:23:55.724Z,247.50
2023-05-17T06:24:55.699Z,247.64
2023-05-17T06:25:55.697Z,248.97
2023-05-17T06:26:55.772Z,249.82
2023-05-17T06:27:55.680Z,249.42
2023-05-17T06:28:55.689Z,249.07
2023-05-17T06:29:55.661Z,250.00
2023-05-17T06:30:55.671Z,248.75
2023-05-17T06:31:57.331Z,245.52
2023-05-17T06:32:55.926Z,243.16
2023-05-17T06:33:55.652Z,241.44
2023-05-17T06:34:55.626Z,235.34
2023-05-17T06:35:57.937Z,225.70
2023-05-17T06:36:55.618Z,229.86
2023-05-17T06:37:55.630Z,228.72
2023-05-17T06:38:55.613Z,233.12
2023-05-17T06:40:00.201Z,236.89
2023-05-17T06:40:56.588Z,237.14
2023-05-17T06:41:55.589Z,237.89
2023-05-17T06:42:55.919Z,239.40
2023-05-17T06:43:55.573Z,241.03
2023-05-17T06:44:55.562Z,242.60
2023-05-17T06:45:55.561Z,242.69
2023-05-17T06:46:55.546Z,241.62
2023-05-17T06:47:55.583Z,241.80
2023-05-17T06:48:55.613Z,235.09
2023-05-17T06:49:55.544Z,238.25
2023-05-17T06:50:55.534Z,240.08
2023-05-17T06:51:55.527Z,241.04
2023-05-17T06:52:55.525Z,241.72
2023-05-17T06:53:55.512Z,241.26
2023-05-17T06:54:55.497Z,241.57
2023-05-17T06:55:55.501Z,242.52
2023-05-17T06:56:55.501Z,242.43
2023-05-17T06:57:55.841Z,242.37
2023-05-17T06:58:55.743Z,243.48
2023-05-17T06:59:55.474Z,243.35
2023-05-17T07:00:55.472Z,243.46
2023-05-17T07:01:55.460Z,243.26
2023-05-17T07:02:55.532Z,243.57
2023-05-17T07:03:55.572Z,243.73
2023-05-17T07:04:55.618Z,239.80
2023-05-17T07:05:55.456Z,238.21
2023-05-17T07:06:55.461Z,238.09
2023-05-17T07:07:55.854Z,239.20
2023-05-17T07:08:55.470Z,238.62
2023-05-17T07:09:55.503Z,238.77
2023-05-17T07:10:55.501Z,238.03
2023-05-17T07:11:55.521Z,239.47
2023-05-17T07:12:55.517Z,238.32
2023-05-17T07:13:55.498Z,239.14
2023-05-17T07:14:55.601Z,239.77
2023-05-17T07:15:55.505Z,241.49
2023-05-17T07:16:55.493Z,242.74
2023-05-17T07:17:55.657Z,244.72
2023-05-17T07:18:55.922Z,244.55
2023-05-17T07:19:55.605Z,244.74
2023-05-17T07:20:55.513Z,244.15
2023-05-17T07:21:55.557Z,243.21
2023-05-17T07:22:55.605Z,243.28
2023-05-17T07:23:55.624Z,243.47
2023-05-17T07:24:55.628Z,242.51
2023-05-17T07:25:55.653Z,241.85
2023-05-17T07:26:55.676Z,230.37
2023-05-17T07:27:55.647Z,229.65
2023-05-17T07:28:55.680Z,237.86
2023-05-17T07:29:55.679Z,236.34
2023-05-17T07:30:55.835Z,217.02
2023-05-17T07:31:55.929Z,208.83
2023-05-17T07:32:55.955Z,224.58
2023-05-17T07:33:55.906Z,245.77
2023-05-17T07:34:55.933Z,265.42
2023-05-17T07:35:56.383Z,254.15
2023-05-17T07:36:56.091Z,247.51
2023-05-17T07:37:56.360Z,249.85
2023-05-17T07:38:56.166Z,247.60
2023-05-17T07:39:56.205Z,241.92
2023-05-17T07:40:56.241Z,248.94
2023-05-17T07:41:56.263Z,250.00
2023-05-17T07:42:56.299Z,249.86
2023-05-17T07:43:56.285Z,250.00
2023-05-17T07:44:56.311Z,247.93
2023-05-17T07:45:56.331Z,244.25
2023-05-17T07:46:56.355Z,235.36
2023-05-17T07:47:56.387Z,236.86
2023-05-17T07:48:58.493Z,239.28
2023-05-17T07:49:56.581Z,241.11
2023-05-17T07:50:56.607Z,240.11
2023-05-17T07:51:56.627Z,241.15
2023-05-17T07:52:56.853Z,242.82
2023-05-17T07:53:56.623Z,243.10
2023-05-17T07:54:56.642Z,239.71
2023-05-17T07:55:56.628Z,236.88
2023-05-17T07:56:56.645Z,237.07
2023-05-17T07:57:56.854Z,238.12
2023-05-17T07:58:56.643Z,238.20
2023-05-17T07:59:56.641Z,240.01
2023-05-17T08:00:56.619Z,241.09
2023-05-17T08:01:56.620Z,240.12
2023-05-17T08:02:57.181Z,241.38
2023-05-17T08:03:56.609Z,240.01
2023-05-17T08:04:56.653Z,240.52
2023-05-17T08:05:56.618Z,236.67
2023-05-17T08:06:56.597Z,240.32
2023-05-17T08:07:56.877Z,244.01
2023-05-17T08:08:56.587Z,242.75
2023-05-17T08:09:56.604Z,240.64
2023-05-17T08:10:56.638Z,239.26
2023-05-17T08:11:56.635Z,237.14
2023-05-17T08:12:56.689Z,234.25
2023-05-17T08:13:56.703Z,230.92
2023-05-17T08:14:56.745Z,231.34
2023-05-17T08:16:05.045Z,229.20
2023-05-17T08:16:58.343Z,229.28
2023-05-17T08:17:56.826Z,229.97
2023-05-17T08:18:56.942Z,232.21
2023-05-17T08:19:56.796Z,234.38
2023-05-17T08:20:56.768Z,236.19
2023-05-17T08:21:56.748Z,226.67
2023-05-17T08:22:56.864Z,202.74
2023-05-17T08:23:56.742Z,191.93
2023-05-17T08:24:56.743Z,163.00
2023-05-17T08:25:56.738Z,142.47
2023-05-17T08:26:56.736Z,146.52
2023-05-17T08:27:56.727Z,153.68
2023-05-17T08:28:56.703Z,157.22
2023-05-17T08:29:56.702Z,166.82
2023-05-17T08:30:56.680Z,177.27
2023-05-17T08:31:56.698Z,181.30
2023-05-17T08:32:57.169Z,185.30
2023-05-17T08:33:56.895Z,201.59
2023-05-17T08:34:56.720Z,198.44
2023-05-17T08:35:56.750Z,201.64
2023-05-17T08:36:56.814Z,207.96
2023-05-17T08:37:56.911Z,208.73
2023-05-17T08:38:56.890Z,210.52
2023-05-17T08:39:56.950Z,212.62
2023-05-17T08:40:56.982Z,212.16
2023-05-17T08:41:56.985Z,208.04
2023-05-17T08:42:57.008Z,183.48
2023-05-17T08:43:57.391Z,170.99
2023-05-17T08:44:57.029Z,157.11
2023-05-17T08:45:57.074Z,149.59
2023-05-17T08:46:57.096Z,143.27
2023-05-17T08:47:57.161Z,137.92
2023-05-17T08:48:57.162Z,135.36
2023-05-17T08:49:57.173Z,133.23
2023-05-17T08:50:57.362Z,130.33
2023-05-17T08:51:57.263Z,127.58
2023-05-17T08:52:57.421Z,130.20
2023-05-17T08:53:57.351Z,130.95
2023-05-17T08:54:57.396Z,133.32
2023-05-17T08:55:57.452Z,135.03
2023-05-17T08:56:57.480Z,137.58
2023-05-17T08:57:57.879Z,132.89
2023-05-17T08:58:58.348Z,137.49
2023-05-17T08:59:57.614Z,137.57
2023-05-17T09:00:57.636Z,136.67
2023-05-17T09:01:57.691Z,139.29
2023-05-17T09:02:57.904Z,140.47
2023-05-17T09:03:57.755Z,142.37
2023-05-17T09:04:57.886Z,145.40
2023-05-17T09:05:57.899Z,146.56
2023-05-17T09:06:57.895Z,146.73
2023-05-17T09:07:57.929Z,149.91
2023-05-17T09:08:57.976Z,150.67
2023-05-17T09:09:57.991Z,150.64
2023-05-17T09:10:58.054Z,150.09
2023-05-17T09:11:58.090Z,149.14
2023-05-17T09:12:58.118Z,150.41
2023-05-17T09:13:58.145Z,154.74
2023-05-17T09:14:58.186Z,150.91
2023-05-17T09:15:58.228Z,147.96
2023-05-17T09:16:58.332Z,146.32
2023-05-17T09:17:58.398Z,147.74
2023-05-17T09:18:58.440Z,147.65
2023-05-17T09:19:58.427Z,148.88
2023-05-17T09:20:58.414Z,150.48
2023-05-17T09:21:58.480Z,148.82
2023-05-17T09:22:58.486Z,149.16
2023-05-17T09:24:06.374Z,148.07
2023-05-17T09:24:59.432Z,148.13
2023-05-17T09:25:58.443Z,148.97
2023-05-17T09:26:58.442Z,150.47
2023-05-17T09:27:58.459Z,151.15
2023-05-17T09:28:58.911Z,151.91
2023-05-17T09:29:58.574Z,149.48
2023-05-17T09:30:58.629Z,152.75
2023-05-17T09:31:58.656Z,149.82
2023-05-17T09:32:58.921Z,146.25
2023-05-17T09:33:58.798Z,153.30
2023-05-17T09:34:58.797Z,168.67
2023-05-17T09:35:58.852Z,176.05
2023-05-17T09:36:58.894Z,179.48
2023-05-17T09:37:58.934Z,180.55
2023-05-17T09:38:59.504Z,186.98
2023-05-17T09:39:59.037Z,194.15
2023-05-17T09:40:59.091Z,197.61
2023-05-17T09:41:59.112Z,200.76
2023-05-17T09:42:59.396Z,204.18
2023-05-17T09:43:59.197Z,202.68
2023-05-17T09:44:59.209Z,204.70
2023-05-17T09:45:59.238Z,204.16
2023-05-17T09:46:59.267Z,202.10
2023-05-17T09:47:59.587Z,207.25
2023-05-17T09:48:59.425Z,206.94
2023-05-17T09:49:59.391Z,206.84
2023-05-17T09:50:59.396Z,207.55
2023-05-17T09:51:59.405Z,212.22
2023-05-17T09:52:59.436Z,213.18
2023-05-17T09:53:59.472Z,212.03
2023-05-17T09:54:59.476Z,210.84
2023-05-17T09:55:59.540Z,211.63
2023-05-17T09:56:59.561Z,215.64
2023-05-17T09:57:59.582Z,216.36
2023-05-17T09:58:59.591Z,216.31
2023-05-17T09:59:59.588Z,217.18
2023-05-17T10:00:59.586Z,218.16
2023-05-17T10:01:59.635Z,219.03
2023-05-17T10:02:59.661Z,208.76
2023-05-17T10:03:59.688Z,199.20
2023-05-17T10:04:59.706Z,189.11
2023-05-17T10:05:59.668Z,192.04
2023-05-17T10:06:59.646Z,185.23
2023-05-17T10:07:59.647Z,193.06
2023-05-17T10:08:59.650Z,196.19
2023-05-17T10:09:59.674Z,190.74
2023-05-17T10:10:59.700Z,188.10
2023-05-17T10:11:59.727Z,182.92
2023-05-17T10:12:59.751Z,183.58
2023-05-17T10:13:59.753Z,182.54
2023-05-17T10:14:59.778Z,185.47
2023-05-17T10:15:59.763Z,184.50
2023-05-17T10:16:59.778Z,183.28
2023-05-17T10:17:59.878Z,187.65
2023-05-17T10:18:59.994Z,190.37
2023-05-17T10:19:59.941Z,180.32
2023-05-17T10:20:59.838Z,179.43
2023-05-17T10:22:08.292Z,187.19
2023-05-17T10:23:00.923Z,187.26
2023-05-17T10:23:59.842Z,187.92
2023-05-17T10:24:59.818Z,189.95
2023-05-17T10:25:59.824Z,196.19
2023-05-17T10:26:59.812Z,201.23
2023-05-17T10:27:59.840Z,200.57
2023-05-17T10:28:59.801Z,199.98
2023-05-17T10:29:59.789Z,202.88
2023-05-17T10:30:59.789Z,200.48
2023-05-17T10:31:59.789Z,206.76
2023-05-17T10:32:59.828Z,205.38
2023-05-17T10:33:59.803Z,208.52
2023-05-17T10:35:10.345Z,213.64
2023-05-17T10:36:00.773Z,213.72
2023-05-17T10:36:59.745Z,214.22
2023-05-17T10:37:59.738Z,215.47
2023-05-17T10:38:59.754Z,210.26
2023-05-17T10:39:59.748Z,197.90
2023-05-17T10:41:02.155Z,191.63
2023-05-17T10:42:13.463Z,200.26
2023-05-17T10:43:00.889Z,200.33
2023-05-17T10:43:59.896Z,201.20
2023-05-17T10:44:59.879Z,202.59
2023-05-17T10:45:59.855Z,205.53
2023-05-17T10:46:59.853Z,207.38
2023-05-17T10:48:01.259Z,207.87
2023-05-17T10:48:59.920Z,208.29
2023-05-17T10:49:59.831Z,209.56
2023-05-17T10:51:01.936Z,208.61
2023-05-17T10:51:59.843Z,211.00
2023-05-17T10:52:59.810Z,211.86
2023-05-17T10:53:59.841Z,205.20
2023-05-17T10:54:59.792Z,201.03
2023-05-17T10:55:59.810Z,200.39
2023-05-17T10:56:59.796Z,201.70
2023-05-17T10:57:59.776Z,204.54
2023-05-17T10:58:59.807Z,209.31
2023-05-17T10:59:59.842Z,208.11
2023-05-17T11:00:59.868Z,205.64
2023-05-17T11:01:59.898Z,205.37
2023-05-17T11:02:59.953Z,200.73
2023-05-17T11:03:59.951Z,187.61
2023-05-17T11:05:00.079Z,188.58
2023-05-17T11:06:00.649Z,193.26
2023-05-17T11:07:01.201Z,196.71
2023-05-17T11:08:00.432Z,196.17
2023-05-17T11:09:00.432Z,172.87
2023-05-17T11:10:00.017Z,177.22
2023-05-17T11:10:59.999Z,172.03
2023-05-17T11:11:59.993Z,163.48
2023-05-17T11:12:59.991Z,161.17
2023-05-17T11:14:00.427Z,161.63
2023-05-17T11:14:59.998Z,161.53
2023-05-17T11:15:59.952Z,164.29
2023-05-17T11:16:59.962Z,162.94
2023-05-17T11:18:00.476Z,154.17
2023-05-17T11:19:00.572Z,150.98
2023-05-17T11:20:00.057Z,149.91
2023-05-17T11:21:00.060Z,140.48
2023-05-17T11:21:59.919Z,142.50
2023-05-17T11:22:59.933Z,136.48
2023-05-17T11:23:59.910Z,135.12
2023-05-17T11:24:59.909Z,129.84
2023-05-17T11:26:09.132Z,133.58
2023-05-17T11:27:00.896Z,133.78
2023-05-17T11:27:59.885Z,134.35
2023-05-17T11:28:59.915Z,135.92
2023-05-17T11:29:59.871Z,138.58
2023-05-17T11:30:59.864Z,141.18
2023-05-17T11:31:59.863Z,143.66
2023-05-17T11:32:59.905Z,144.66
2023-05-17T11:33:59.847Z,148.05
2023-05-17T11:34:59.850Z,146.35
2023-05-17T11:35:59.819Z,150.48
2023-05-17T11:36:59.829Z,146.58
2023-05-17T11:37:59.835Z,145.37
2023-05-17T11:39:08.162Z,151.95
2023-05-17T11:40:00.822Z,151.43
2023-05-17T11:40:59.790Z,150.18
2023-05-17T11:41:59.774Z,147.48
2023-05-17T11:42:59.769Z,148.50
2023-05-17T11:43:59.815Z,144.34
2023-05-17T11:44:59.751Z,135.78
2023-05-17T11:45:59.759Z,128.30
2023-05-17T11:46:59.830Z,124.21
2023-05-17T11:47:59.818Z,130.08
2023-05-17T11:48:59.730Z,143.09
2023-05-17T11:49:59.740Z,133.30
2023-05-17T11:51:02.089Z,133.06
2023-05-17T11:51:59.697Z,140.35
2023-05-17T11:52:59.716Z,148.91
2023-05-17T11:53:59.689Z,156.97
2023-05-17T11:54:59.691Z,157.26
2023-05-17T11:55:59.695Z,164.76
2023-05-17T11:56:59.672Z,157.94
2023-05-17T11:57:59.672Z,149.65
2023-05-17T11:58:59.662Z,147.19
2023-05-17T11:59:59.636Z,149.47
2023-05-17T12:00:59.639Z,151.51
2023-05-17T12:01:59.638Z,151.64
2023-05-17T12:02:59.710Z,153.63
2023-05-17T12:04:00.123Z,152.57
2023-05-17T12:04:59.741Z,154.60
2023-05-17T12:05:59.606Z,156.79
2023-05-17T12:06:59.592Z,157.44
2023-05-17T12:07:59.604Z,158.45
2023-05-17T12:08:59.599Z,160.62
2023-05-17T12:09:59.577Z,160.22
2023-05-17T12:10:59.577Z,162.06
2023-05-17T12:11:59.569Z,162.02
2023-05-17T12:12:59.565Z,164.95
2023-05-17T12:13:59.558Z,166.19
2023-05-17T12:14:59.554Z,167.29
2023-05-17T12:15:59.543Z,169.47
2023-05-17T12:16:59.543Z,172.31
2023-05-17T12:17:59.645Z,171.07
2023-05-17T12:18:59.668Z,173.52
2023-05-17T12:19:59.592Z,176.59
2023-05-17T12:20:59.514Z,183.16
2023-05-17T12:21:59.496Z,184.06
2023-05-17T12:22:59.500Z,186.19
2023-05-17T12:23:59.470Z,184.98
2023-05-17T12:24:59.610Z,186.09
2023-05-17T12:25:59.459Z,187.49
2023-05-17T12:26:59.469Z,188.11
2023-05-17T12:27:59.457Z,187.22
2023-05-17T12:28:59.434Z,185.55
2023-05-17T12:29:59.428Z,183.58
2023-05-17T12:30:59.428Z,178.01
2023-05-17T12:31:59.442Z,181.65
2023-05-17T12:32:59.512Z,182.17
2023-05-17T12:33:59.588Z,182.51
2023-05-17T12:34:59.431Z,184.43
2023-05-17T12:35:59.408Z,182.75
2023-05-17T12:36:59.394Z,182.58
2023-05-17T12:37:59.381Z,180.72